sensor_id;sensor_type;location;lat;lon;timestamp;P1;durP1;ratioP1;P2;durP2;ratioP2
75930;SDS011;64609;47.052;15.462;2023-12-20T00:02:18;29.48;;;17.17;;
75930;SDS011;64609;47.052;15.462;2023-12-20T00:04:44;31.80;;;18.13;;
75930;SDS011;64609;47.052;15.462;2023-12-20T00:07:09;30.13;;;17.77;;
75930;SDS011;64609;47.052;15.462;2023-12-20T00:09:35;33.05;;;19.00;;
75930;SDS011;64609;47.052;15.462;2023-12-20T00:12:00;35.58;;;20.30;;
75930;SDS011;64609;47.052;15.462;2023-12-20T00:14:26;35.90;;;20.27;;
75930;SDS011;64609;47.052;15.462;2023-12-20T00:16:52;30.83;;;18.98;;
75930;SDS011;64609;47.052;15.462;2023-12-20T00:19:17;36.45;;;20.85;;
75930;SDS011;64609;47.052;15.462;2023-12-20T00:21:43;39.38;;;20.60;;
75930;SDS011;64609;47.052;15.462;2023-12-20T00:24:08;37.25;;;20.95;;
75930;SDS011;64609;47.052;15.462;2023-12-20T00:26:34;42.40;;;25.10;;
75930;SDS011;64609;47.052;15.462;2023-12-20T00:29:00;44.17;;;26.27;;
75930;SDS011;64609;47.052;15.462;2023-12-20T00:31:25;40.38;;;24.27;;
75930;SDS011;64609;47.052;15.462;2023-12-20T00:33:51;40.85;;;25.20;;
75930;SDS011;64609;47.052;15.462;2023-12-20T00:36:16;41.78;;;24.33;;
75930;SDS011;64609;47.052;15.462;2023-12-20T00:38:42;42.50;;;23.52;;
75930;SDS011;64609;47.052;15.462;2023-12-20T00:41:07;41.25;;;24.13;;
75930;SDS011;64609;47.052;15.462;2023-12-20T00:43:33;40.40;;;23.73;;
75930;SDS011;64609;47.052;15.462;2023-12-20T00:45:59;39.92;;;24.50;;
75930;SDS011;64609;47.052;15.462;2023-12-20T00:48:25;39.45;;;24.60;;
75930;SDS011;64609;47.052;15.462;2023-12-20T00:50:52;42.13;;;24.05;;
75930;SDS011;64609;47.052;15.462;2023-12-20T00:53:18;39.75;;;24.20;;
75930;SDS011;64609;47.052;15.462;2023-12-20T00:55:43;43.17;;;25.25;;
75930;SDS011;64609;47.052;15.462;2023-12-20T00:58:10;44.22;;;25.58;;
75930;SDS011;64609;47.052;15.462;2023-12-20T01:00:35;41.33;;;24.88;;
75930;SDS011;64609;47.052;15.462;2023-12-20T01:03:01;43.05;;;25.00;;
75930;SDS011;64609;47.052;15.462;2023-12-20T01:05:27;40.78;;;24.85;;
75930;SDS011;64609;47.052;15.462;2023-12-20T01:07:52;43.03;;;25.48;;
75930;SDS011;64609;47.052;15.462;2023-12-20T01:10:18;40.72;;;24.33;;
75930;SDS011;64609;47.052;15.462;2023-12-20T01:12:43;38.75;;;24.55;;
75930;SDS011;64609;47.052;15.462;2023-12-20T01:15:09;43.80;;;25.65;;
75930;SDS011;64609;47.052;15.462;2023-12-20T01:17:35;40.35;;;23.17;;
75930;SDS011;64609;47.052;15.462;2023-12-20T01:20:01;39.35;;;23.15;;
75930;SDS011;64609;47.052;15.462;2023-12-20T01:22:27;40.28;;;23.27;;
75930;SDS011;64609;47.052;15.462;2023-12-20T01:24:52;40.63;;;23.92;;
75930;SDS011;64609;47.052;15.462;2023-12-20T01:27:18;42.10;;;24.20;;
75930;SDS011;64609;47.052;15.462;2023-12-20T01:29:44;37.70;;;23.27;;
75930;SDS011;64609;47.052;15.462;2023-12-20T01:32:10;40.47;;;22.98;;
75930;SDS011;64609;47.052;15.462;2023-12-20T01:34:35;44.25;;;24.73;;
75930;SDS011;64609;47.052;15.462;2023-12-20T01:37:01;37.10;;;23.23;;
75930;SDS011;64609;47.052;15.462;2023-12-20T01:39:27;42.95;;;24.52;;
75930;SDS011;64609;47.052;15.462;2023-12-20T01:41:53;43.95;;;25.95;;
75930;SDS011;64609;47.052;15.462;2023-12-20T01:44:19;41.03;;;24.05;;
75930;SDS011;64609;47.052;15.462;2023-12-20T01:46:44;48.08;;;26.70;;
75930;SDS011;64609;47.052;15.462;2023-12-20T01:49:10;42.47;;;27.25;;
75930;SDS011;64609;47.052;15.462;2023-12-20T01:51:36;45.00;;;25.92;;
75930;SDS011;64609;47.052;15.462;2023-12-20T01:54:02;47.58;;;27.92;;
75930;SDS011;64609;47.052;15.462;2023-12-20T01:56:28;43.85;;;24.45;;
75930;SDS011;64609;47.052;15.462;2023-12-20T01:58:55;39.88;;;23.48;;
75930;SDS011;64609;47.052;15.462;2023-12-20T02:01:21;45.13;;;24.95;;
75930;SDS011;64609;47.052;15.462;2023-12-20T02:03:47;44.97;;;25.08;;
75930;SDS011;64609;47.052;15.462;2023-12-20T02:06:13;44.42;;;26.60;;
75930;SDS011;64609;47.052;15.462;2023-12-20T02:08:39;44.33;;;26.80;;
75930;SDS011;64609;47.052;15.462;2023-12-20T02:11:05;42.83;;;25.80;;
75930;SDS011;64609;47.052;15.462;2023-12-20T02:13:31;47.80;;;27.15;;
75930;SDS011;64609;47.052;15.462;2023-12-20T02:15:57;48.08;;;26.10;;
75930;SDS011;64609;47.052;15.462;2023-12-20T02:18:22;44.05;;;24.15;;
75930;SDS011;64609;47.052;15.462;2023-12-20T02:20:48;47.40;;;24.98;;
75930;SDS011;64609;47.052;15.462;2023-12-20T02:23:14;41.72;;;23.75;;
75930;SDS011;64609;47.052;15.462;2023-12-20T02:25:39;46.85;;;25.58;;
75930;SDS011;64609;47.052;15.462;2023-12-20T02:28:05;60.63;;;25.45;;
75930;SDS011;64609;47.052;15.462;2023-12-20T02:30:31;61.53;;;25.40;;
75930;SDS011;64609;47.052;15.462;2023-12-20T02:32:57;85.53;;;24.67;;
75930;SDS011;64609;47.052;15.462;2023-12-20T02:35:25;64.25;;;25.02;;
75930;SDS011;64609;47.052;15.462;2023-12-20T02:37:50;62.00;;;23.73;;
75930;SDS011;64609;47.052;15.462;2023-12-20T02:40:16;67.40;;;25.63;;
75930;SDS011;64609;47.052;15.462;2023-12-20T02:42:41;83.35;;;24.92;;
75930;SDS011;64609;47.052;15.462;2023-12-20T02:45:07;70.30;;;22.67;;
75930;SDS011;64609;47.052;15.462;2023-12-20T02:47:33;49.88;;;21.55;;
75930;SDS011;64609;47.052;15.462;2023-12-20T02:49:59;37.60;;;20.63;;
75930;SDS011;64609;47.052;15.462;2023-12-20T02:52:24;44.25;;;20.63;;
75930;SDS011;64609;47.052;15.462;2023-12-20T02:54:50;44.35;;;20.23;;
75930;SDS011;64609;47.052;15.462;2023-12-20T02:57:16;39.50;;;18.58;;
75930;SDS011;64609;47.052;15.462;2023-12-20T02:59:41;37.58;;;18.85;;
75930;SDS011;64609;47.052;15.462;2023-12-20T03:02:07;35.83;;;18.33;;
75930;SDS011;64609;47.052;15.462;2023-12-20T03:04:32;41.00;;;17.85;;
75930;SDS011;64609;47.052;15.462;2023-12-20T03:06:58;29.40;;;16.88;;
75930;SDS011;64609;47.052;15.462;2023-12-20T03:09:24;29.33;;;17.23;;
75930;SDS011;64609;47.052;15.462;2023-12-20T03:11:49;27.25;;;16.55;;
75930;SDS011;64609;47.052;15.462;2023-12-20T03:14:15;25.00;;;14.70;;
75930;SDS011;64609;47.052;15.462;2023-12-20T03:16:41;25.35;;;16.52;;
75930;SDS011;64609;47.052;15.462;2023-12-20T03:19:06;26.42;;;15.93;;
75930;SDS011;64609;47.052;15.462;2023-12-20T03:21:32;26.15;;;15.00;;
75930;SDS011;64609;47.052;15.462;2023-12-20T03:23:57;24.60;;;14.60;;
75930;SDS011;64609;47.052;15.462;2023-12-20T03:26:23;27.17;;;15.07;;
75930;SDS011;64609;47.052;15.462;2023-12-20T03:28:49;23.48;;;13.98;;
75930;SDS011;64609;47.052;15.462;2023-12-20T03:31:14;23.58;;;13.85;;
75930;SDS011;64609;47.052;15.462;2023-12-20T03:33:40;24.73;;;13.93;;
75930;SDS011;64609;47.052;15.462;2023-12-20T03:36:05;20.00;;;12.80;;
75930;SDS011;64609;47.052;15.462;2023-12-20T03:38:31;20.88;;;12.80;;
75930;SDS011;64609;47.052;15.462;2023-12-20T03:40:57;22.80;;;13.20;;
75930;SDS011;64609;47.052;15.462;2023-12-20T03:43:22;23.30;;;12.38;;
75930;SDS011;64609;47.052;15.462;2023-12-20T03:45:48;21.98;;;12.43;;
75930;SDS011;64609;47.052;15.462;2023-12-20T03:48:13;20.95;;;13.05;;
75930;SDS011;64609;47.052;15.462;2023-12-20T03:50:39;19.60;;;11.93;;
75930;SDS011;64609;47.052;15.462;2023-12-20T03:53:05;22.30;;;12.55;;
75930;SDS011;64609;47.052;15.462;2023-12-20T03:55:30;20.55;;;12.43;;
75930;SDS011;64609;47.052;15.462;2023-12-20T03:57:56;19.48;;;12.32;;
75930;SDS011;64609;47.052;15.462;2023-12-20T04:00:21;23.23;;;11.98;;
75930;SDS011;64609;47.052;15.462;2023-12-20T04:02:47;19.75;;;11.13;;
75930;SDS011;64609;47.052;15.462;2023-12-20T04:05:13;21.55;;;11.63;;
75930;SDS011;64609;47.052;15.462;2023-12-20T04:07:38;18.25;;;11.38;;
75930;SDS011;64609;47.052;15.462;2023-12-20T04:10:04;18.73;;;10.60;;
75930;SDS011;64609;47.052;15.462;2023-12-20T04:12:30;20.23;;;11.68;;
75930;SDS011;64609;47.052;15.462;2023-12-20T04:14:57;21.17;;;12.02;;
75930;SDS011;64609;47.052;15.462;2023-12-20T04:17:22;21.70;;;12.40;;
75930;SDS011;64609;47.052;15.462;2023-12-20T04:19:48;18.75;;;12.07;;
75930;SDS011;64609;47.052;15.462;2023-12-20T04:22:14;21.55;;;12.57;;
75930;SDS011;64609;47.052;15.462;2023-12-20T04:24:40;19.02;;;12.13;;
75930;SDS011;64609;47.052;15.462;2023-12-20T04:27:09;20.08;;;11.35;;
75930;SDS011;64609;47.052;15.462;2023-12-20T04:29:35;20.65;;;12.38;;
75930;SDS011;64609;47.052;15.462;2023-12-20T04:32:00;21.75;;;12.98;;
75930;SDS011;64609;47.052;15.462;2023-12-20T04:34:26;21.52;;;13.18;;
75930;SDS011;64609;47.052;15.462;2023-12-20T04:36:52;27.48;;;13.50;;
75930;SDS011;64609;47.052;15.462;2023-12-20T04:39:18;21.98;;;13.63;;
75930;SDS011;64609;47.052;15.462;2023-12-20T04:41:44;21.17;;;13.07;;
75930;SDS011;64609;47.052;15.462;2023-12-20T04:44:09;24.40;;;12.95;;
75930;SDS011;64609;47.052;15.462;2023-12-20T04:46:35;22.23;;;12.20;;
75930;SDS011;64609;47.052;15.462;2023-12-20T04:49:01;25.90;;;13.70;;
75930;SDS011;64609;47.052;15.462;2023-12-20T04:51:27;24.52;;;13.82;;
75930;SDS011;64609;47.052;15.462;2023-12-20T04:53:52;24.63;;;15.02;;
75930;SDS011;64609;47.052;15.462;2023-12-20T04:56:18;22.70;;;14.07;;
75930;SDS011;64609;47.052;15.462;2023-12-20T04:58:43;28.48;;;13.68;;
75930;SDS011;64609;47.052;15.462;2023-12-20T05:01:09;24.83;;;12.98;;
75930;SDS011;64609;47.052;15.462;2023-12-20T05:03:35;25.45;;;14.50;;
75930;SDS011;64609;47.052;15.462;2023-12-20T05:06:01;27.15;;;14.05;;
75930;SDS011;64609;47.052;15.462;2023-12-20T05:08:26;26.83;;;13.35;;
75930;SDS011;64609;47.052;15.462;2023-12-20T05:10:55;24.02;;;12.95;;
75930;SDS011;64609;47.052;15.462;2023-12-20T05:13:21;20.42;;;13.00;;
75930;SDS011;64609;47.052;15.462;2023-12-20T05:15:47;25.08;;;15.02;;
75930;SDS011;64609;47.052;15.462;2023-12-20T05:18:13;25.73;;;14.02;;
75930;SDS011;64609;47.052;15.462;2023-12-20T05:20:39;25.15;;;14.35;;
75930;SDS011;64609;47.052;15.462;2023-12-20T05:23:04;25.05;;;14.43;;
75930;SDS011;64609;47.052;15.462;2023-12-20T05:25:31;28.05;;;15.77;;
75930;SDS011;64609;47.052;15.462;2023-12-20T05:27:57;24.25;;;15.07;;
75930;SDS011;64609;47.052;15.462;2023-12-20T05:30:22;27.98;;;15.30;;
75930;SDS011;64609;47.052;15.462;2023-12-20T05:32:48;25.90;;;15.07;;
75930;SDS011;64609;47.052;15.462;2023-12-20T05:35:14;25.75;;;14.32;;
75930;SDS011;64609;47.052;15.462;2023-12-20T05:37:40;23.98;;;14.68;;
75930;SDS011;64609;47.052;15.462;2023-12-20T05:40:06;24.33;;;15.73;;
75930;SDS011;64609;47.052;15.462;2023-12-20T05:42:35;22.35;;;13.65;;
75930;SDS011;64609;47.052;15.462;2023-12-20T05:45:01;26.35;;;13.68;;
75930;SDS011;64609;47.052;15.462;2023-12-20T05:47:26;22.50;;;13.98;;
75930;SDS011;64609;47.052;15.462;2023-12-20T05:49:52;21.65;;;14.48;;
75930;SDS011;64609;47.052;15.462;2023-12-20T05:52:18;24.00;;;14.00;;
75930;SDS011;64609;47.052;15.462;2023-12-20T05:54:44;21.85;;;14.32;;
75930;SDS011;64609;47.052;15.462;2023-12-20T05:57:10;23.52;;;13.27;;
75930;SDS011;64609;47.052;15.462;2023-12-20T05:59:36;23.10;;;13.73;;
75930;SDS011;64609;47.052;15.462;2023-12-20T06:02:03;19.23;;;12.63;;
75930;SDS011;64609;47.052;15.462;2023-12-20T06:04:29;23.35;;;13.88;;
75930;SDS011;64609;47.052;15.462;2023-12-20T06:06:55;20.15;;;11.77;;
75930;SDS011;64609;47.052;15.462;2023-12-20T06:09:21;18.10;;;10.57;;
75930;SDS011;64609;47.052;15.462;2023-12-20T06:11:46;19.40;;;12.35;;
75930;SDS011;64609;47.052;15.462;2023-12-20T06:14:12;16.88;;;11.00;;
75930;SDS011;64609;47.052;15.462;2023-12-20T06:16:37;19.85;;;10.55;;
75930;SDS011;64609;47.052;15.462;2023-12-20T06:19:03;18.80;;;11.38;;
75930;SDS011;64609;47.052;15.462;2023-12-20T06:21:29;15.25;;;9.75;;
75930;SDS011;64609;47.052;15.462;2023-12-20T06:23:54;18.38;;;9.98;;
75930;SDS011;64609;47.052;15.462;2023-12-20T06:26:20;15.98;;;10.75;;
75930;SDS011;64609;47.052;15.462;2023-12-20T06:28:45;17.65;;;10.57;;
75930;SDS011;64609;47.052;15.462;2023-12-20T06:31:11;12.52;;;8.98;;
75930;SDS011;64609;47.052;15.462;2023-12-20T06:33:37;14.48;;;9.05;;
75930;SDS011;64609;47.052;15.462;2023-12-20T06:36:05;12.95;;;8.52;;
75930;SDS011;64609;47.052;15.462;2023-12-20T06:38:31;13.57;;;8.73;;
75930;SDS011;64609;47.052;15.462;2023-12-20T06:40:56;12.43;;;8.30;;
75930;SDS011;64609;47.052;15.462;2023-12-20T06:43:23;15.13;;;9.63;;
75930;SDS011;64609;47.052;15.462;2023-12-20T06:45:49;13.90;;;9.60;;
75930;SDS011;64609;47.052;15.462;2023-12-20T06:48:15;15.73;;;8.73;;
75930;SDS011;64609;47.052;15.462;2023-12-20T06:50:41;13.80;;;8.60;;
75930;SDS011;64609;47.052;15.462;2023-12-20T06:53:07;13.27;;;8.02;;
75930;SDS011;64609;47.052;15.462;2023-12-20T06:55:36;18.92;;;9.80;;
75930;SDS011;64609;47.052;15.462;2023-12-20T06:58:02;16.05;;;8.65;;
75930;SDS011;64609;47.052;15.462;2023-12-20T07:00:29;15.02;;;10.30;;
75930;SDS011;64609;47.052;15.462;2023-12-20T07:02:55;16.80;;;10.18;;
75930;SDS011;64609;47.052;15.462;2023-12-20T07:05:20;15.52;;;10.23;;
75930;SDS011;64609;47.052;15.462;2023-12-20T07:07:47;17.25;;;9.55;;
75930;SDS011;64609;47.052;15.462;2023-12-20T07:10:13;16.80;;;10.52;;
75930;SDS011;64609;47.052;15.462;2023-12-20T07:12:38;16.73;;;10.93;;
75930;SDS011;64609;47.052;15.462;2023-12-20T07:15:04;16.38;;;10.98;;
75930;SDS011;64609;47.052;15.462;2023-12-20T07:17:33;22.92;;;11.82;;
75930;SDS011;64609;47.052;15.462;2023-12-20T07:19:59;18.52;;;12.27;;
75930;SDS011;64609;47.052;15.462;2023-12-20T07:22:31;20.92;;;13.18;;
75930;SDS011;64609;47.052;15.462;2023-12-20T07:24:58;41.55;;;22.85;;
75930;SDS011;64609;47.052;15.462;2023-12-20T07:27:24;37.85;;;20.23;;
75930;SDS011;64609;47.052;15.462;2023-12-20T07:29:50;36.22;;;21.13;;
75930;SDS011;64609;47.052;15.462;2023-12-20T07:32:16;30.77;;;17.45;;
75930;SDS011;64609;47.052;15.462;2023-12-20T07:34:42;43.97;;;23.00;;
75930;SDS011;64609;47.052;15.462;2023-12-20T07:37:07;41.67;;;22.90;;
75930;SDS011;64609;47.052;15.462;2023-12-20T07:39:35;36.50;;;22.02;;
75930;SDS011;64609;47.052;15.462;2023-12-20T07:42:01;40.20;;;24.38;;
75930;SDS011;64609;47.052;15.462;2023-12-20T07:44:26;47.90;;;23.60;;
75930;SDS011;64609;47.052;15.462;2023-12-20T07:46:52;41.63;;;21.63;;
75930;SDS011;64609;47.052;15.462;2023-12-20T07:49:18;42.22;;;22.25;;
75930;SDS011;64609;47.052;15.462;2023-12-20T07:51:44;34.22;;;21.42;;
75930;SDS011;64609;47.052;15.462;2023-12-20T07:54:10;34.05;;;20.42;;
75930;SDS011;64609;47.052;15.462;2023-12-20T07:56:35;30.95;;;19.23;;
75930;SDS011;64609;47.052;15.462;2023-12-20T07:59:01;36.22;;;19.40;;
75930;SDS011;64609;47.052;15.462;2023-12-20T08:01:27;33.13;;;19.10;;
75930;SDS011;64609;47.052;15.462;2023-12-20T08:03:52;36.40;;;19.73;;
75930;SDS011;64609;47.052;15.462;2023-12-20T08:06:18;29.23;;;18.20;;
75930;SDS011;64609;47.052;15.462;2023-12-20T08:08:44;35.50;;;20.40;;
75930;SDS011;64609;47.052;15.462;2023-12-20T08:11:09;33.22;;;19.77;;
75930;SDS011;64609;47.052;15.462;2023-12-20T08:13:35;30.88;;;18.30;;
75930;SDS011;64609;47.052;15.462;2023-12-20T08:16:00;29.50;;;18.98;;
75930;SDS011;64609;47.052;15.462;2023-12-20T08:18:28;30.83;;;19.00;;
75930;SDS011;64609;47.052;15.462;2023-12-20T08:20:53;33.40;;;20.80;;
75930;SDS011;64609;47.052;15.462;2023-12-20T08:23:19;34.05;;;20.02;;
75930;SDS011;64609;47.052;15.462;2023-12-20T08:25:48;34.67;;;18.98;;
75930;SDS011;64609;47.052;15.462;2023-12-20T08:28:14;36.78;;;18.60;;
75930;SDS011;64609;47.052;15.462;2023-12-20T08:30:40;30.08;;;18.98;;
75930;SDS011;64609;47.052;15.462;2023-12-20T08:33:06;34.85;;;20.05;;
75930;SDS011;64609;47.052;15.462;2023-12-20T08:35:36;27.05;;;17.80;;
75930;SDS011;64609;47.052;15.462;2023-12-20T08:38:02;31.70;;;19.75;;
75930;SDS011;64609;47.052;15.462;2023-12-20T08:40:29;35.45;;;20.65;;
75930;SDS011;64609;47.052;15.462;2023-12-20T08:42:54;42.83;;;22.48;;
75930;SDS011;64609;47.052;15.462;2023-12-20T08:45:20;37.85;;;20.90;;
75930;SDS011;64609;47.052;15.462;2023-12-20T08:47:46;29.90;;;18.23;;
75930;SDS011;64609;47.052;15.462;2023-12-20T08:50:11;25.05;;;16.85;;
75930;SDS011;64609;47.052;15.462;2023-12-20T08:52:37;30.42;;;16.95;;
75930;SDS011;64609;47.052;15.462;2023-12-20T08:55:03;26.85;;;16.20;;
75930;SDS011;64609;47.052;15.462;2023-12-20T08:57:29;33.53;;;17.15;;
75930;SDS011;64609;47.052;15.462;2023-12-20T08:59:56;33.15;;;17.38;;
75930;SDS011;64609;47.052;15.462;2023-12-20T09:02:22;28.17;;;17.88;;
75930;SDS011;64609;47.052;15.462;2023-12-20T09:04:48;30.35;;;16.80;;
75930;SDS011;64609;47.052;15.462;2023-12-20T09:07:26;29.38;;;18.17;;
75930;SDS011;64609;47.052;15.462;2023-12-20T09:09:52;26.20;;;17.50;;
75930;SDS011;64609;47.052;15.462;2023-12-20T09:12:19;29.33;;;18.40;;
75930;SDS011;64609;47.052;15.462;2023-12-20T09:14:45;35.40;;;19.55;;
75930;SDS011;64609;47.052;15.462;2023-12-20T09:17:12;30.10;;;18.40;;
75930;SDS011;64609;47.052;15.462;2023-12-20T09:19:38;28.63;;;18.13;;
75930;SDS011;64609;47.052;15.462;2023-12-20T09:22:04;30.58;;;17.35;;
75930;SDS011;64609;47.052;15.462;2023-12-20T09:24:30;28.27;;;17.33;;
75930;SDS011;64609;47.052;15.462;2023-12-20T09:26:56;27.73;;;16.60;;
75930;SDS011;64609;47.052;15.462;2023-12-20T09:29:21;26.05;;;17.30;;
75930;SDS011;64609;47.052;15.462;2023-12-20T09:31:47;31.13;;;16.48;;
75930;SDS011;64609;47.052;15.462;2023-12-20T09:34:14;25.58;;;16.88;;
75930;SDS011;64609;47.052;15.462;2023-12-20T09:36:41;24.80;;;15.77;;
75930;SDS011;64609;47.052;15.462;2023-12-20T09:39:11;23.45;;;15.05;;
75930;SDS011;64609;47.052;15.462;2023-12-20T09:41:44;27.25;;;16.15;;
75930;SDS011;64609;47.052;15.462;2023-12-20T09:44:15;24.70;;;15.52;;
75930;SDS011;64609;47.052;15.462;2023-12-20T09:46:43;26.95;;;15.90;;
75930;SDS011;64609;47.052;15.462;2023-12-20T09:49:10;29.63;;;16.77;;
75930;SDS011;64609;47.052;15.462;2023-12-20T09:51:37;30.48;;;17.25;;
75930;SDS011;64609;47.052;15.462;2023-12-20T09:54:03;28.23;;;17.35;;
75930;SDS011;64609;47.052;15.462;2023-12-20T09:56:29;25.05;;;16.20;;
75930;SDS011;64609;47.052;15.462;2023-12-20T09:58:55;30.38;;;15.25;;
75930;SDS011;64609;47.052;15.462;2023-12-20T10:01:22;27.15;;;15.57;;
75930;SDS011;64609;47.052;15.462;2023-12-20T10:03:51;25.27;;;16.00;;
75930;SDS011;64609;47.052;15.462;2023-12-20T10:06:19;30.75;;;15.60;;
75930;SDS011;64609;47.052;15.462;2023-12-20T10:08:46;23.55;;;15.05;;
75930;SDS011;64609;47.052;15.462;2023-12-20T10:11:11;26.73;;;13.80;;
75930;SDS011;64609;47.052;15.462;2023-12-20T10:13:41;24.80;;;14.25;;
75930;SDS011;64609;47.052;15.462;2023-12-20T10:16:07;23.08;;;14.30;;
75930;SDS011;64609;47.052;15.462;2023-12-20T10:18:33;24.20;;;13.60;;
75930;SDS011;64609;47.052;15.462;2023-12-20T10:20:59;26.90;;;15.27;;
75930;SDS011;64609;47.052;15.462;2023-12-20T10:23:25;20.52;;;14.25;;
75930;SDS011;64609;47.052;15.462;2023-12-20T10:25:57;22.13;;;13.30;;
75930;SDS011;64609;47.052;15.462;2023-12-20T10:28:24;22.27;;;13.88;;
75930;SDS011;64609;47.052;15.462;2023-12-20T10:30:53;27.02;;;14.25;;
75930;SDS011;64609;47.052;15.462;2023-12-20T10:33:24;23.25;;;13.13;;
75930;SDS011;64609;47.052;15.462;2023-12-20T10:35:51;34.60;;;18.55;;
75930;SDS011;64609;47.052;15.462;2023-12-20T10:38:18;42.10;;;22.45;;
75930;SDS011;64609;47.052;15.462;2023-12-20T10:40:45;38.40;;;20.15;;
75930;SDS011;64609;47.052;15.462;2023-12-20T10:43:11;24.42;;;15.10;;
75930;SDS011;64609;47.052;15.462;2023-12-20T10:45:37;20.20;;;12.20;;
75930;SDS011;64609;47.052;15.462;2023-12-20T10:48:03;18.98;;;10.73;;
75930;SDS011;64609;47.052;15.462;2023-12-20T10:50:29;19.10;;;11.20;;
75930;SDS011;64609;47.052;15.462;2023-12-20T10:52:56;14.10;;;10.02;;
75930;SDS011;64609;47.052;15.462;2023-12-20T10:55:23;18.70;;;10.50;;
75930;SDS011;64609;47.052;15.462;2023-12-20T10:57:51;18.92;;;10.73;;
75930;SDS011;64609;47.052;15.462;2023-12-20T11:00:20;18.35;;;10.00;;
75930;SDS011;64609;47.052;15.462;2023-12-20T11:02:48;19.73;;;10.68;;
75930;SDS011;64609;47.052;15.462;2023-12-20T11:05:26;22.70;;;10.98;;
75930;SDS011;64609;47.052;15.462;2023-12-20T11:08:02;19.00;;;10.10;;
75930;SDS011;64609;47.052;15.462;2023-12-20T11:10:46;15.93;;;10.90;;
75930;SDS011;64609;47.052;15.462;2023-12-20T11:13:27;27.45;;;10.75;;
75930;SDS011;64609;47.052;15.462;2023-12-20T11:15:59;26.20;;;11.60;;
75930;SDS011;64609;47.052;15.462;2023-12-20T11:18:29;22.65;;;11.05;;
75930;SDS011;64609;47.052;15.462;2023-12-20T11:20:55;26.38;;;13.38;;
75930;SDS011;64609;47.052;15.462;2023-12-20T11:23:25;20.38;;;11.95;;
75930;SDS011;64609;47.052;15.462;2023-12-20T11:25:55;48.10;;;13.40;;
75930;SDS011;64609;47.052;15.462;2023-12-20T11:28:24;24.10;;;12.70;;
75930;SDS011;64609;47.052;15.462;2023-12-20T11:30:55;23.88;;;11.93;;
75930;SDS011;64609;47.052;15.462;2023-12-20T11:33:32;23.80;;;11.35;;
75930;SDS011;64609;47.052;15.462;2023-12-20T11:36:01;21.10;;;12.20;;
75930;SDS011;64609;47.052;15.462;2023-12-20T11:38:32;32.65;;;12.57;;
75930;SDS011;64609;47.052;15.462;2023-12-20T11:41:02;30.00;;;12.65;;
75930;SDS011;64609;47.052;15.462;2023-12-20T11:43:38;33.25;;;12.32;;
75930;SDS011;64609;47.052;15.462;2023-12-20T11:46:04;31.58;;;11.60;;
75930;SDS011;64609;47.052;15.462;2023-12-20T11:48:31;36.08;;;12.38;;
75930;SDS011;64609;47.052;15.462;2023-12-20T11:50:58;28.35;;;12.05;;
75930;SDS011;64609;47.052;15.462;2023-12-20T11:53:24;26.23;;;12.93;;
75930;SDS011;64609;47.052;15.462;2023-12-20T11:55:50;29.88;;;11.85;;
75930;SDS011;64609;47.052;15.462;2023-12-20T11:58:16;30.05;;;12.40;;
75930;SDS011;64609;47.052;15.462;2023-12-20T12:00:42;30.40;;;13.25;;
75930;SDS011;64609;47.052;15.462;2023-12-20T12:03:08;32.90;;;13.77;;
75930;SDS011;64609;47.052;15.462;2023-12-20T12:05:34;36.22;;;12.32;;
75930;SDS011;64609;47.052;15.462;2023-12-20T12:08:00;31.90;;;12.13;;
75930;SDS011;64609;47.052;15.462;2023-12-20T12:10:27;31.45;;;12.32;;
75930;SDS011;64609;47.052;15.462;2023-12-20T12:12:53;39.35;;;11.55;;
75930;SDS011;64609;47.052;15.462;2023-12-20T12:15:19;27.42;;;11.68;;
75930;SDS011;64609;47.052;15.462;2023-12-20T12:17:52;29.30;;;10.90;;
75930;SDS011;64609;47.052;15.462;2023-12-20T12:20:19;44.15;;;11.15;;
75930;SDS011;64609;47.052;15.462;2023-12-20T12:22:45;29.85;;;11.05;;
75930;SDS011;64609;47.052;15.462;2023-12-20T12:25:12;29.52;;;11.35;;
75930;SDS011;64609;47.052;15.462;2023-12-20T12:27:39;23.58;;;11.10;;
75930;SDS011;64609;47.052;15.462;2023-12-20T12:30:06;28.20;;;11.38;;
75930;SDS011;64609;47.052;15.462;2023-12-20T12:32:33;31.30;;;12.52;;
75930;SDS011;64609;47.052;15.462;2023-12-20T12:34:59;31.25;;;11.90;;
75930;SDS011;64609;47.052;15.462;2023-12-20T12:37:24;21.67;;;10.43;;
75930;SDS011;64609;47.052;15.462;2023-12-20T12:39:53;30.90;;;11.48;;
75930;SDS011;64609;47.052;15.462;2023-12-20T12:42:19;24.15;;;12.07;;
75930;SDS011;64609;47.052;15.462;2023-12-20T12:44:46;25.63;;;12.43;;
75930;SDS011;64609;47.052;15.462;2023-12-20T12:47:12;35.00;;;18.40;;
75930;SDS011;64609;47.052;15.462;2023-12-20T12:49:37;38.13;;;17.27;;
75930;SDS011;64609;47.052;15.462;2023-12-20T12:52:05;30.65;;;15.43;;
75930;SDS011;64609;47.052;15.462;2023-12-20T12:54:31;30.25;;;14.45;;
75930;SDS011;64609;47.052;15.462;2023-12-20T12:56:56;28.83;;;14.18;;
75930;SDS011;64609;47.052;15.462;2023-12-20T12:59:23;35.55;;;14.27;;
75930;SDS011;64609;47.052;15.462;2023-12-20T13:01:48;29.58;;;13.88;;
75930;SDS011;64609;47.052;15.462;2023-12-20T13:04:14;31.10;;;16.42;;
75930;SDS011;64609;47.052;15.462;2023-12-20T13:06:40;32.67;;;17.40;;
75930;SDS011;64609;47.052;15.462;2023-12-20T13:09:07;32.38;;;17.73;;
75930;SDS011;64609;47.052;15.462;2023-12-20T13:11:34;31.70;;;15.50;;
75930;SDS011;64609;47.052;15.462;2023-12-20T13:14:00;31.77;;;13.90;;
75930;SDS011;64609;47.052;15.462;2023-12-20T13:16:26;30.45;;;14.25;;
75930;SDS011;64609;47.052;15.462;2023-12-20T13:18:52;34.08;;;14.85;;
75930;SDS011;64609;47.052;15.462;2023-12-20T13:21:17;26.63;;;13.52;;
75930;SDS011;64609;47.052;15.462;2023-12-20T13:23:43;25.88;;;13.48;;
75930;SDS011;64609;47.052;15.462;2023-12-20T13:26:08;33.63;;;13.27;;
75930;SDS011;64609;47.052;15.462;2023-12-20T13:28:34;26.33;;;13.27;;
75930;SDS011;64609;47.052;15.462;2023-12-20T13:31:00;30.10;;;13.20;;
75930;SDS011;64609;47.052;15.462;2023-12-20T13:33:25;26.65;;;13.70;;
75930;SDS011;64609;47.052;15.462;2023-12-20T13:35:51;34.53;;;14.52;;
75930;SDS011;64609;47.052;15.462;2023-12-20T13:38:16;34.50;;;13.82;;
75930;SDS011;64609;47.052;15.462;2023-12-20T13:40:42;31.88;;;13.40;;
75930;SDS011;64609;47.052;15.462;2023-12-20T13:43:08;32.47;;;14.27;;
75930;SDS011;64609;47.052;15.462;2023-12-20T13:45:36;39.50;;;14.35;;
75930;SDS011;64609;47.052;15.462;2023-12-20T13:48:01;32.78;;;14.18;;
75930;SDS011;64609;47.052;15.462;2023-12-20T13:50:27;32.17;;;14.27;;
75930;SDS011;64609;47.052;15.462;2023-12-20T13:52:53;30.65;;;13.73;;
75930;SDS011;64609;47.052;15.462;2023-12-20T13:55:18;36.13;;;15.18;;
75930;SDS011;64609;47.052;15.462;2023-12-20T13:57:47;35.33;;;15.38;;
75930;SDS011;64609;47.052;15.462;2023-12-20T14:00:13;40.50;;;16.60;;
75930;SDS011;64609;47.052;15.462;2023-12-20T14:02:40;33.95;;;17.17;;
75930;SDS011;64609;47.052;15.462;2023-12-20T14:05:06;35.83;;;15.85;;